sensor_id;sensor_type;location;lat;lon;timestamp;temperature;humidity
67364;HTU21D;54250;45.572;38.086;2023-11-18T00:00:23;6.15;91.62
67364;HTU21D;54250;45.572;38.086;2023-11-18T00:02:50;6.16;91.50
67364;HTU21D;54250;45.572;38.086;2023-11-18T00:05:16;6.17;91.47
67364;HTU21D;54250;45.572;38.086;2023-11-18T00:07:43;6.19;91.62
67364;HTU21D;54250;45.572;38.086;2023-11-18T00:10:10;6.20;91.70
67364;HTU21D;54250;45.572;38.086;2023-11-18T00:12:37;6.20;91.82
67364;HTU21D;54250;45.572;38.086;2023-11-18T00:15:06;6.17;92.03
67364;HTU21D;54250;45.572;38.086;2023-11-18T00:17:34;6.14;92.37
67364;HTU21D;54250;45.572;38.086;2023-11-18T00:20:01;6.15;92.50
67364;HTU21D;54250;45.572;38.086;2023-11-18T00:22:37;6.11;92.70
67364;HTU21D;54250;45.572;38.086;2023-11-18T00:25:03;6.11;92.82
67364;HTU21D;54250;45.572;38.086;2023-11-18T00:27:33;6.09;92.73
67364;HTU21D;54250;45.572;38.086;2023-11-18T00:30:03;6.05;93.13
67364;HTU21D;54250;45.572;38.086;2023-11-18T00:32:31;5.98;93.56
67364;HTU21D;54250;45.572;38.086;2023-11-18T00:34:57;5.96;93.59
67364;HTU21D;54250;45.572;38.086;2023-11-18T00:37:23;6.00;93.43
67364;HTU21D;54250;45.572;38.086;2023-11-18T00:39:49;5.95;93.69
67364;HTU21D;54250;45.572;38.086;2023-11-18T00:42:15;5.95;93.89
67364;HTU21D;54250;45.572;38.086;2023-11-18T00:44:41;5.95;94.12
67364;HTU21D;54250;45.572;38.086;2023-11-18T00:47:07;5.95;94.30
67364;HTU21D;54250;45.572;38.086;2023-11-18T00:49:34;5.90;94.55
67364;HTU21D;54250;45.572;38.086;2023-11-18T00:52:00;5.90;94.52
67364;HTU21D;54250;45.572;38.086;2023-11-18T00:54:28;5.89;94.33
67364;HTU21D;54250;45.572;38.086;2023-11-18T00:56:54;5.86;94.55
67364;HTU21D;54250;45.572;38.086;2023-11-18T00:59:20;5.83;94.79
67364;HTU21D;54250;45.572;38.086;2023-11-18T01:01:45;5.79;95.14
67364;HTU21D;54250;45.572;38.086;2023-11-18T01:04:11;5.78;95.30
67364;HTU21D;54250;45.572;38.086;2023-11-18T01:06:37;5.77;95.55
67364;HTU21D;54250;45.572;38.086;2023-11-18T01:09:03;5.78;95.52
67364;HTU21D;54250;45.572;38.086;2023-11-18T01:11:29;5.77;95.59
67364;HTU21D;54250;45.572;38.086;2023-11-18T01:13:55;5.77;95.86
67364;HTU21D;54250;45.572;38.086;2023-11-18T01:16:21;5.76;96.13
67364;HTU21D;54250;45.572;38.086;2023-11-18T01:18:47;5.75;96.12
67364;HTU21D;54250;45.572;38.086;2023-11-18T01:21:13;5.75;96.39
67364;HTU21D;54250;45.572;38.086;2023-11-18T01:23:39;5.74;96.35
67364;HTU21D;54250;45.572;38.086;2023-11-18T01:26:11;5.74;96.51
67364;HTU21D;54250;45.572;38.086;2023-11-18T01:28:38;5.69;96.74
67364;HTU21D;54250;45.572;38.086;2023-11-18T01:31:09;5.69;96.78
67364;HTU21D;54250;45.572;38.086;2023-11-18T01:33:39;5.68;96.61
67364;HTU21D;54250;45.572;38.086;2023-11-18T01:36:08;5.69;96.80
67364;HTU21D;54250;45.572;38.086;2023-11-18T01:38:36;5.67;96.75
67364;HTU21D;54250;45.572;38.086;2023-11-18T01:41:04;5.68;96.91
67364;HTU21D;54250;45.572;38.086;2023-11-18T01:43:31;5.69;96.78
67364;HTU21D;54250;45.572;38.086;2023-11-18T01:46:03;5.68;96.82
67364;HTU21D;54250;45.572;38.086;2023-11-18T01:48:30;5.69;96.75
67364;HTU21D;54250;45.572;38.086;2023-11-18T01:50:59;5.68;96.79
67364;HTU21D;54250;45.572;38.086;2023-11-18T01:53:28;5.68;96.94
67364;HTU21D;54250;45.572;38.086;2023-11-18T01:55:54;5.68;97.00
67364;HTU21D;54250;45.572;38.086;2023-11-18T01:58:21;5.70;97.09
67364;HTU21D;54250;45.572;38.086;2023-11-18T02:00:50;5.72;97.10
67364;HTU21D;54250;45.572;38.086;2023-11-18T02:03:17;5.72;97.23
67364;HTU21D;54250;45.572;38.086;2023-11-18T02:05:44;5.75;97.22
67364;HTU21D;54250;45.572;38.086;2023-11-18T02:08:10;5.76;97.29
67364;HTU21D;54250;45.572;38.086;2023-11-18T02:10:51;5.78;97.19
67364;HTU21D;54250;45.572;38.086;2023-11-18T02:13:26;5.81;97.10
67364;HTU21D;54250;45.572;38.086;2023-11-18T02:15:53;5.81;97.13
67364;HTU21D;54250;45.572;38.086;2023-11-18T02:18:29;5.84;97.03
67364;HTU21D;54250;45.572;38.086;2023-11-18T02:20:56;5.86;96.89
67364;HTU21D;54250;45.572;38.086;2023-11-18T02:23:26;5.90;96.71
67364;HTU21D;54250;45.572;38.086;2023-11-18T02:25:54;5.87;96.75
67364;HTU21D;54250;45.572;38.086;2023-11-18T02:28:23;5.91;96.65
67364;HTU21D;54250;45.572;38.086;2023-11-18T02:30:57;5.92;96.77
67364;HTU21D;54250;45.572;38.086;2023-11-18T02:33:32;5.91;96.84
67364;HTU21D;54250;45.572;38.086;2023-11-18T02:36:05;5.91;96.94
67364;HTU21D;54250;45.572;38.086;2023-11-18T02:38:35;5.91;96.94
67364;HTU21D;54250;45.572;38.086;2023-11-18T02:41:12;5.92;96.85
67364;HTU21D;54250;45.572;38.086;2023-11-18T02:43:39;5.93;96.92
67364;HTU21D;54250;45.572;38.086;2023-11-18T02:46:07;5.93;96.94
67364;HTU21D;54250;45.572;38.086;2023-11-18T02:48:34;5.94;96.89
67364;HTU21D;54250;45.572;38.086;2023-11-18T02:51:01;5.95;96.81
67364;HTU21D;54250;45.572;38.086;2023-11-18T02:53:27;5.96;96.68
67364;HTU21D;54250;45.572;38.086;2023-11-18T02:55:54;5.97;96.75
67364;HTU21D;54250;45.572;38.086;2023-11-18T02:58:30;5.93;96.68
67364;HTU21D;54250;45.572;38.086;2023-11-18T03:00:56;5.93;96.61
67364;HTU21D;54250;45.572;38.086;2023-11-18T03:03:26;5.92;96.65
67364;HTU21D;54250;45.572;38.086;2023-11-18T03:05:54;5.92;96.68
67364;HTU21D;54250;45.572;38.086;2023-11-18T03:08:21;5.96;96.55
67364;HTU21D;54250;45.572;38.086;2023-11-18T03:10:47;5.96;96.45
67364;HTU21D;54250;45.572;38.086;2023-11-18T03:13:13;5.96;96.39
67364;HTU21D;54250;45.572;38.086;2023-11-18T03:15:39;5.97;96.35
67364;HTU21D;54250;45.572;38.086;2023-11-18T03:18:06;5.96;96.43
67364;HTU21D;54250;45.572;38.086;2023-11-18T03:20:33;5.96;96.38
67364;HTU21D;54250;45.572;38.086;2023-11-18T03:23:00;5.96;96.41
67364;HTU21D;54250;45.572;38.086;2023-11-18T03:25:27;5.95;96.42
67364;HTU21D;54250;45.572;38.086;2023-11-18T03:27:53;5.96;96.33
67364;HTU21D;54250;45.572;38.086;2023-11-18T03:30:20;5.97;96.28
67364;HTU21D;54250;45.572;38.086;2023-11-18T03:32:46;5.97;96.20
67364;HTU21D;54250;45.572;38.086;2023-11-18T03:35:12;5.98;96.17
67364;HTU21D;54250;45.572;38.086;2023-11-18T03:37:39;5.99;96.14
67364;HTU21D;54250;45.572;38.086;2023-11-18T03:40:15;5.99;96.11
67364;HTU21D;54250;45.572;38.086;2023-11-18T03:42:42;5.98;96.13
67364;HTU21D;54250;45.572;38.086;2023-11-18T03:45:08;6.00;96.07
67364;HTU21D;54250;45.572;38.086;2023-11-18T03:47:37;6.01;95.96
67364;HTU21D;54250;45.572;38.086;2023-11-18T03:50:03;6.04;95.98
67364;HTU21D;54250;45.572;38.086;2023-11-18T03:52:30;6.05;95.91
67364;HTU21D;54250;45.572;38.086;2023-11-18T03:54:56;6.05;95.88
67364;HTU21D;54250;45.572;38.086;2023-11-18T03:57:22;6.04;95.95
67364;HTU21D;54250;45.572;38.086;2023-11-18T03:59:48;6.04;96.03
67364;HTU21D;54250;45.572;38.086;2023-11-18T04:02:14;6.01;96.18
67364;HTU21D;54250;45.572;38.086;2023-11-18T04:04:40;5.99;96.33
67364;HTU21D;54250;45.572;38.086;2023-11-18T04:07:06;6.01;96.28
67364;HTU21D;54250;45.572;38.086;2023-11-18T04:09:32;6.01;96.20
67364;HTU21D;54250;45.572;38.086;2023-11-18T04:11:58;6.00;96.18
67364;HTU21D;54250;45.572;38.086;2023-11-18T04:14:24;6.01;96.22
67364;HTU21D;54250;45.572;38.086;2023-11-18T04:16:51;6.01;96.26
67364;HTU21D;54250;45.572;38.086;2023-11-18T04:19:18;6.00;96.27
67364;HTU21D;54250;45.572;38.086;2023-11-18T04:21:44;5.99;96.33
67364;HTU21D;54250;45.572;38.086;2023-11-18T04:24:14;6.00;96.26
67364;HTU21D;54250;45.572;38.086;2023-11-18T04:26:41;6.02;96.25
67364;HTU21D;54250;45.572;38.086;2023-11-18T04:29:07;6.01;96.17
67364;HTU21D;54250;45.572;38.086;2023-11-18T04:31:33;6.04;96.10
67364;HTU21D;54250;45.572;38.086;2023-11-18T04:34:03;6.04;96.06
67364;HTU21D;54250;45.572;38.086;2023-11-18T04:36:30;6.06;95.97
67364;HTU21D;54250;45.572;38.086;2023-11-18T04:38:57;6.07;95.91
67364;HTU21D;54250;45.572;38.086;2023-11-18T04:41:23;6.08;95.90
67364;HTU21D;54250;45.572;38.086;2023-11-18T04:43:49;6.07;95.90
67364;HTU21D;54250;45.572;38.086;2023-11-18T04:46:15;6.08;95.88
67364;HTU21D;54250;45.572;38.086;2023-11-18T04:48:42;6.08;95.85
67364;HTU21D;54250;45.572;38.086;2023-11-18T04:51:08;6.09;95.89
67364;HTU21D;54250;45.572;38.086;2023-11-18T04:53:34;6.08;95.95
67364;HTU21D;54250;45.572;38.086;2023-11-18T04:56:00;6.08;96.04
67364;HTU21D;54250;45.572;38.086;2023-11-18T04:58:26;6.06;96.13
67364;HTU21D;54250;45.572;38.086;2023-11-18T05:00:52;6.07;96.17
67364;HTU21D;54250;45.572;38.086;2023-11-18T05:03:18;6.09;96.23
67364;HTU21D;54250;45.572;38.086;2023-11-18T05:05:44;6.09;96.21
67364;HTU21D;54250;45.572;38.086;2023-11-18T05:08:20;6.09;96.25
67364;HTU21D;54250;45.572;38.086;2023-11-18T05:10:47;6.08;96.32
67364;HTU21D;54250;45.572;38.086;2023-11-18T05:13:14;6.11;96.29
67364;HTU21D;54250;45.572;38.086;2023-11-18T05:15:46;6.10;96.24
67364;HTU21D;54250;45.572;38.086;2023-11-18T05:18:13;6.10;96.27
67364;HTU21D;54250;45.572;38.086;2023-11-18T05:20:42;6.09;96.25
67364;HTU21D;54250;45.572;38.086;2023-11-18T05:23:08;6.08;96.26
67364;HTU21D;54250;45.572;38.086;2023-11-18T05:25:39;6.07;96.29
67364;HTU21D;54250;45.572;38.086;2023-11-18T05:28:05;6.07;96.41
67364;HTU21D;54250;45.572;38.086;2023-11-18T05:30:40;6.09;96.43
67364;HTU21D;54250;45.572;38.086;2023-11-18T05:33:06;6.09;96.50
67364;HTU21D;54250;45.572;38.086;2023-11-18T05:35:33;6.12;96.49
67364;HTU21D;54250;45.572;38.086;2023-11-18T05:38:01;6.16;96.42
67364;HTU21D;54250;45.572;38.086;2023-11-18T05:40:28;6.19;96.47
67364;HTU21D;54250;45.572;38.086;2023-11-18T05:42:56;6.23;96.47
67364;HTU21D;54250;45.572;38.086;2023-11-18T05:45:23;6.24;96.52
67364;HTU21D;54250;45.572;38.086;2023-11-18T05:47:58;6.26;96.63
67364;HTU21D;54250;45.572;38.086;2023-11-18T05:50:25;6.25;96.71
67364;HTU21D;54250;45.572;38.086;2023-11-18T05:52:54;6.27;96.81
67364;HTU21D;54250;45.572;38.086;2023-11-18T05:55:20;6.25;96.92
67364;HTU21D;54250;45.572;38.086;2023-11-18T05:57:46;6.23;97.00
67364;HTU21D;54250;45.572;38.086;2023-11-18T06:00:13;6.23;97.09
67364;HTU21D;54250;45.572;38.086;2023-11-18T06:02:45;6.22;97.17
67364;HTU21D;54250;45.572;38.086;2023-11-18T06:05:11;6.21;97.32
67364;HTU21D;54250;45.572;38.086;2023-11-18T06:07:39;6.24;97.36
67364;HTU21D;54250;45.572;38.086;2023-11-18T06:10:09;6.23;97.42
67364;HTU21D;54250;45.572;38.086;2023-11-18T06:12:35;6.24;97.49
67364;HTU21D;54250;45.572;38.086;2023-11-18T06:15:03;6.26;97.60
67364;HTU21D;54250;45.572;38.086;2023-11-18T06:17:29;6.26;97.65
67364;HTU21D;54250;45.572;38.086;2023-11-18T06:19:55;6.27;97.70
67364;HTU21D;54250;45.572;38.086;2023-11-18T06:22:21;6.28;97.80
67364;HTU21D;54250;45.572;38.086;2023-11-18T06:24:47;6.27;97.80
67364;HTU21D;54250;45.572;38.086;2023-11-18T06:27:12;6.29;97.80
67364;HTU21D;54250;45.572;38.086;2023-11-18T06:29:38;6.28;97.87
67364;HTU21D;54250;45.572;38.086;2023-11-18T06:32:06;6.28;97.90
67364;HTU21D;54250;45.572;38.086;2023-11-18T06:34:32;6.31;97.87
67364;HTU21D;54250;45.572;38.086;2023-11-18T06:36:58;6.33;97.86
67364;HTU21D;54250;45.572;38.086;2023-11-18T06:39:24;6.34;97.87
67364;HTU21D;54250;45.572;38.086;2023-11-18T06:41:56;6.35;97.86
67364;HTU21D;54250;45.572;38.086;2023-11-18T06:44:23;6.37;97.96
67364;HTU21D;54250;45.572;38.086;2023-11-18T06:46:49;6.38;98.01
67364;HTU21D;54250;45.572;38.086;2023-11-18T06:49:17;6.43;97.96
67364;HTU21D;54250;45.572;38.086;2023-11-18T06:51:43;6.52;97.85
67364;HTU21D;54250;45.572;38.086;2023-11-18T06:54:09;6.59;97.66
67364;HTU21D;54250;45.572;38.086;2023-11-18T06:56:37;6.65;97.52
67364;HTU21D;54250;45.572;38.086;2023-11-18T06:59:06;6.67;97.54
67364;HTU21D;54250;45.572;38.086;2023-11-18T07:01:34;6.64;97.62
67364;HTU21D;54250;45.572;38.086;2023-11-18T07:03:59;6.65;97.73
67364;HTU21D;54250;45.572;38.086;2023-11-18T07:06:25;6.64;97.75
67364;HTU21D;54250;45.572;38.086;2023-11-18T07:08:53;6.65;97.80
67364;HTU21D;54250;45.572;38.086;2023-11-18T07:11:20;6.66;97.75
67364;HTU21D;54250;45.572;38.086;2023-11-18T07:13:49;6.66;97.75
67364;HTU21D;54250;45.572;38.086;2023-11-18T07:16:15;6.66;97.83
67364;HTU21D;54250;45.572;38.086;2023-11-18T07:18:41;6.67;97.83
67364;HTU21D;54250;45.572;38.086;2023-11-18T07:21:08;6.70;97.78
67364;HTU21D;54250;45.572;38.086;2023-11-18T07:23:35;6.72;97.66
67364;HTU21D;54250;45.572;38.086;2023-11-18T07:26:02;6.76;97.59
67364;HTU21D;54250;45.572;38.086;2023-11-18T07:28:29;6.79;97.52
67364;HTU21D;54250;45.572;38.086;2023-11-18T07:30:56;6.84;97.45
67364;HTU21D;54250;45.572;38.086;2023-11-18T07:33:23;6.87;97.38
67364;HTU21D;54250;45.572;38.086;2023-11-18T07:35:49;6.93;97.29
67364;HTU21D;54250;45.572;38.086;2023-11-18T07:38:16;6.98;97.15
67364;HTU21D;54250;45.572;38.086;2023-11-18T07:40:43;7.02;97.00
67364;HTU21D;54250;45.572;38.086;2023-11-18T07:43:17;7.04;97.02
67364;HTU21D;54250;45.572;38.086;2023-11-18T07:45:47;7.08;97.02
67364;HTU21D;54250;45.572;38.086;2023-11-18T07:48:17;7.14;96.92
67364;HTU21D;54250;45.572;38.086;2023-11-18T07:50:44;7.20;96.78
67364;HTU21D;54250;45.572;38.086;2023-11-18T07:53:10;7.24;96.74
67364;HTU21D;54250;45.572;38.086;2023-11-18T07:55:36;7.30;96.70
67364;HTU21D;54250;45.572;38.086;2023-11-18T07:58:07;7.39;96.62
67364;HTU21D;54250;45.572;38.086;2023-11-18T08:00:42;7.39;96.59
67364;HTU21D;54250;45.572;38.086;2023-11-18T08:03:09;7.45;96.67
67364;HTU21D;54250;45.572;38.086;2023-11-18T08:05:39;7.59;96.49
67364;HTU21D;54250;45.572;38.086;2023-11-18T08:08:11;7.78;96.18
67364;HTU21D;54250;45.572;38.086;2023-11-18T08:10:39;7.94;95.92
67364;HTU21D;54250;45.572;38.086;2023-11-18T08:13:07;8.05;95.56
67364;HTU21D;54250;45.572;38.086;2023-11-18T08:15:40;8.11;95.43
67364;HTU21D;54250;45.572;38.086;2023-11-18T08:18:07;8.14;95.33
67364;HTU21D;54250;45.572;38.086;2023-11-18T08:20:36;8.14;95.24
67364;HTU21D;54250;45.572;38.086;2023-11-18T08:23:03;8.29;95.11
67364;HTU21D;54250;45.572;38.086;2023-11-18T08:25:30;8.50;94.76
67364;HTU21D;54250;45.572;38.086;2023-11-18T08:28:00;8.71;94.45
67364;HTU21D;54250;45.572;38.086;2023-11-18T08:30:29;9.00;93.81
67364;HTU21D;54250;45.572;38.086;2023-11-18T08:32:55;9.27;93.26
67364;HTU21D;54250;45.572;38.086;2023-11-18T08:35:23;9.60;92.58
67364;HTU21D;54250;45.572;38.086;2023-11-18T08:37:49;10.12;91.83
67364;HTU21D;54250;45.572;38.086;2023-11-18T08:40:15;10.53;90.25
67364;HTU21D;54250;45.572;38.086;2023-11-18T08:42:42;10.79;89.92
67364;HTU21D;54250;45.572;38.086;2023-11-18T08:45:24;10.85;89.95
67364;HTU21D;54250;45.572;38.086;2023-11-18T08:48:01;10.94;89.32
67364;HTU21D;54250;45.572;38.086;2023-11-18T08:50:29;10.94;89.33
67364;HTU21D;54250;45.572;38.086;2023-11-18T08:52:57;10.84;88.89
67364;HTU21D;54250;45.572;38.086;2023-11-18T08:55:29;10.59;88.80
67364;HTU21D;54250;45.572;38.086;2023-11-18T08:58:08;10.36;89.44
67364;HTU21D;54250;45.572;38.086;2023-11-18T09:00:43;10.29;89.28
67364;HTU21D;54250;45.572;38.086;2023-11-18T09:03:25;10.23;89.33
67364;HTU21D;54250;45.572;38.086;2023-11-18T09:06:01;10.10;89.25
67364;HTU21D;54250;45.572;38.086;2023-11-18T09:08:44;10.04;89.14
67364;HTU21D;54250;45.572;38.086;2023-11-18T09:11:13;10.04;89.44
67364;HTU21D;54250;45.572;38.086;2023-11-18T09:13:45;10.01;89.27
67364;HTU21D;54250;45.572;38.086;2023-11-18T09:16:13;9.94;89.08
67364;HTU21D;54250;45.572;38.086;2023-11-18T09:18:40;9.79;88.90
67364;HTU21D;54250;45.572;38.086;2023-11-18T09:21:07;9.81;89.30
67364;HTU21D;54250;45.572;38.086;2023-11-18T09:23:41;9.81;89.28
67364;HTU21D;54250;45.572;38.086;2023-11-18T09:26:07;9.88;89.28
67364;HTU21D;54250;45.572;38.086;2023-11-18T09:28:34;9.92;89.26
67364;HTU21D;54250;45.572;38.086;2023-11-18T09:31:01;9.95;89.14
67364;HTU21D;54250;45.572;38.086;2023-11-18T09:33:31;9.99;88.52
67364;HTU21D;54250;45.572;38.086;2023-11-18T09:36:01;10.00;88.75
67364;HTU21D;54250;45.572;38.086;2023-11-18T09:38:32;10.05;88.59
67364;HTU21D;54250;45.572;38.086;2023-11-18T09:40:59;10.04;88.40
67364;HTU21D;54250;45.572;38.086;2023-11-18T09:43:35;10.11;88.67
67364;HTU21D;54250;45.572;38.086;2023-11-18T09:46:14;10.13;88.38
67364;HTU21D;54250;45.572;38.086;2023-11-18T09:51:23;10.20;88.09
67364;HTU21D;54250;45.572;38.086;2023-11-18T09:53:51;10.25;87.89
67364;HTU21D;54250;45.572;38.086;2023-11-18T09:56:41;10.27;87.83
67364;HTU21D;54250;45.572;38.086;2023-11-18T10:01:53;10.49;87.52
67364;HTU21D;54250;45.572;38.086;2023-11-18T10:04:23;10.51;87.46
67364;HTU21D;54250;45.572;38.086;2023-11-18T10:06:54;10.60;87.21
67364;HTU21D;54250;45.572;38.086;2023-11-18T10:09:23;10.68;86.70
67364;HTU21D;54250;45.572;38.086;2023-11-18T10:12:18;10.82;85.84
67364;HTU21D;54250;45.572;38.086;2023-11-18T10:14:49;10.86;85.76
67364;HTU21D;54250;45.572;38.086;2023-11-18T10:17:18;10.73;85.19
67364;HTU21D;54250;45.572;38.086;2023-11-18T10:19:57;10.71;85.40
67364;HTU21D;54250;45.572;38.086;2023-11-18T10:22:26;10.66;85.27
67364;HTU21D;54250;45.572;38.086;2023-11-18T10:24:58;10.51;84.56
67364;HTU21D;54250;45.572;38.086;2023-11-18T10:27:27;10.43;84.58
67364;HTU21D;54250;45.572;38.086;2023-11-18T10:29:57;10.35;84.34
67364;HTU21D;54250;45.572;38.086;2023-11-18T10:32:24;10.23;83.78
67364;HTU21D;54250;45.572;38.086;2023-11-18T10:34:57;10.20;84.12
67364;HTU21D;54250;45.572;38.086;2023-11-18T10:37:26;10.20;84.20
67364;HTU21D;54250;45.572;38.086;2023-11-18T10:39:56;10.15;83.87
67364;HTU21D;54250;45.572;38.086;2023-11-18T10:42:26;10.12;84.01
67364;HTU21D;54250;45.572;38.086;2023-11-18T10:44:57;10.07;83.74
67364;HTU21D;54250;45.572;38.086;2023-11-18T10:47:26;10.04;83.74
67364;HTU21D;54250;45.572;38.086;2023-11-18T10:49:55;10.00;83.80
67364;HTU21D;54250;45.572;38.086;2023-11-18T10:52:23;10.05;83.97
67364;HTU21D;54250;45.572;38.086;2023-11-18T10:54:53;9.99;83.77
67364;HTU21D;54250;45.572;38.086;2023-11-18T10:57:22;9.97;83.94
67364;HTU21D;54250;45.572;38.086;2023-11-18T11:00:02;9.92;83.99
67364;HTU21D;54250;45.572;38.086;2023-11-18T11:02:32;9.79;83.71
67364;HTU21D;54250;45.572;38.086;2023-11-18T11:05:05;9.74;84.04
67364;HTU21D;54250;45.572;38.086;2023-11-18T11:07:43;9.68;84.10
67364;HTU21D;54250;45.572;38.086;2023-11-18T11:10:10;9.64;84.05
67364;HTU21D;54250;45.572;38.086;2023-11-18T11:12:47;9.65;84.23
67364;HTU21D;54250;45.572;38.086;2023-11-18T11:15:22;9.61;83.99
67364;HTU21D;54250;45.572;38.086;2023-11-18T11:17:52;9.56;84.10
67364;HTU21D;54250;45.572;38.086;2023-11-18T11:20:25;9.54;84.00
67364;HTU21D;54250;45.572;38.086;2023-11-18T11:25:32;9.55;84.10
67364;HTU21D;54250;45.572;38.086;2023-11-18T11:30:45;9.57;83.97
67364;HTU21D;54250;45.572;38.086;2023-11-18T11:33:33;9.57;83.81
67364;HTU21D;54250;45.572;38.086;2023-11-18T11:36:21;9.53;83.68
67364;HTU21D;54250;45.572;38.086;2023-11-18T11:38:53;9.54;83.58
67364;HTU21D;54250;45.572;38.086;2023-11-18T11:41:22;9.56;83.49
67364;HTU21D;54250;45.572;38.086;2023-11-18T11:43:52;9.63;83.52
67364;HTU21D;54250;45.572;38.086;2023-11-18T11:46:27;9.64;83.29
67364;HTU21D;54250;45.572;38.086;2023-11-18T11:49:00;9.69;83.24
67364;HTU21D;54250;45.572;38.086;2023-11-18T11:54:55;9.61;83.36
67364;HTU21D;54250;45.572;38.086;2023-11-18T11:57:22;9.62;83.36
67364;HTU21D;54250;45.572;38.086;2023-11-18T12:02:21;9.59;83.45
67364;HTU21D;54250;45.572;38.086;2023-11-18T12:04:52;9.55;83.49
67364;HTU21D;54250;45.572;38.086;2023-11-18T12:07:20;9.55;83.68
67364;HTU21D;54250;45.572;38.086;2023-11-18T12:09:51;9.53;83.78
67364;HTU21D;54250;45.572;38.086;2023-11-18T12:12:24;9.52;83.89
67364;HTU21D;54250;45.572;38.086;2023-11-18T12:14:59;9.51;83.96
67364;HTU21D;54250;45.572;38.086;2023-11-18T12:20:39;9.45;84.32
67364;HTU21D;54250;45.572;38.086;2023-11-18T12:23:13;9.42;84.44
67364;HTU21D;54250;45.572;38.086;2023-11-18T12:25:43;9.37;84.52
67364;HTU21D;54250;45.572;38.086;2023-11-18T12:28:14;9.34;84.68
67364;HTU21D;54250;45.572;38.086;2023-11-18T12:30:42;9.32;84.63
67364;HTU21D;54250;45.572;38.086;2023-11-18T12:42:09;9.00;85.26
67364;HTU21D;54250;45.572;38.086;2023-11-18T12:45:31;8.92;85.34
67364;HTU21D;54250;45.572;38.086;2023-11-18T12:48:07;8.82;85.57
67364;HTU21D;54250;45.572;38.086;2023-11-18T12:50:41;8.76;85.62
67364;HTU21D;54250;45.572;38.086;2023-11-18T12:53:10;8.74;85.76
67364;HTU21D;54250;45.572;38.086;2023-11-18T12:55:39;8.71;85.93
67364;HTU21D;54250;45.572;38.086;2023-11-18T12:58:05;8.63;86.09
67364;HTU21D;54250;45.572;38.086;2023-11-18T13:00:32;8.60;86.09
67364;HTU21D;54250;45.572;38.086;2023-11-18T13:03:00;8.53;86.22
67364;HTU21D;54250;45.572;38.086;2023-11-18T13:05:26;8.45;86.37
67364;HTU21D;54250;45.572;38.086;2023-11-18T13:07:56;8.39;86.48
67364;HTU21D;54250;45.572;38.086;2023-11-18T13:10:24;8.31;86.64
67364;HTU21D;54250;45.572;38.086;2023-11-18T13:12:53;8.28;86.77
67364;HTU21D;54250;45.572;38.086;2023-11-18T13:15:21;8.22;86.86
67364;HTU21D;54250;45.572;38.086;2023-11-18T13:18:05;8.19;86.88
67364;HTU21D;54250;45.572;38.086;2023-11-18T13:20:33;8.14;87.04
67364;HTU21D;54250;45.572;38.086;2023-11-18T13:23:02;8.12;87.12
67364;HTU21D;54250;45.572;38.086;2023-11-18T13:25:35;8.07;87.24
67364;HTU21D;54250;45.572;38.086;2023-11-18T13:28:05;8.05;87.33
67364;HTU21D;54250;45.572;38.086;2023-11-18T13:30:35;8.00;87.45
67364;HTU21D;54250;45.572;38.086;2023-11-18T13:33:01;7.96;87.67
67364;HTU21D;54250;45.572;38.086;2023-11-18T13:35:27;7.94;87.79
67364;HTU21D;54250;45.572;38.086;2023-11-18T13:37:54;7.89;87.96
67364;HTU21D;54250;45.572;38.086;2023-11-18T13:40:20;7.87;88.06
67364;HTU21D;54250;45.572;38.086;2023-11-18T13:42:46;7.85;88.20
67364;HTU21D;54250;45.572;38.086;2023-11-18T13:45:13;7.81;88.31
67364;HTU21D;54250;45.572;38.086;2023-11-18T13:47:51;7.78;88.28
67364;HTU21D;54250;45.572;38.086;2023-11-18T13:50:20;7.72;88.47
67364;HTU21D;54250;45.572;38.086;2023-11-18T13:52:47;7.70;88.60
67364;HTU21D;54250;45.572;38.086;2023-11-18T13:55:15;7.67;88.67
67364;HTU21D;54250;45.572;38.086;2023-11-18T13:57:54;7.63;88.71
67364;HTU21D;54250;45.572;38.086;2023-11-18T14:00:31;7.57;88.84
67364;HTU21D;54250;45.572;38.086;2023-11-18T14:02:57;7.60;88.92
67364;HTU21D;54250;45.572;38.086;2023-11-18T14:05:24;7.54;89.05
67364;HTU21D;54250;45.572;38.086;2023-11-18T14:07:52;7.53;89.18
67364;HTU21D;54250;45.572;38.086;2023-11-18T14:10:22;7.48;89.21
67364;HTU21D;54250;45.572;38.086;2023-11-18T14:13:06;7.48;89.23
67364;HTU21D;54250;45.572;38.086;2023-11-18T14:15:35;7.45;89.29
67364;HTU21D;54250;45.572;38.086;2023-11-18T14:18:02;7.43;89.46
67364;HTU21D;54250;45.572;38.086;2023-11-18T14:20:28;7.39;89.59
67364;HTU21D;54250;45.572;38.086;2023-11-18T14:22:57;7.42;89.57
67364;HTU21D;54250;45.572;38.086;2023-11-18T14:25:27;7.38;89.71
67364;HTU21D;54250;45.572;38.086;2023-11-18T14:27:53;7.38;89.70
67364;HTU21D;54250;45.572;38.086;2023-11-18T14:30:19;7.37;89.76
67364;HTU21D;54250;45.572;38.086;2023-11-18T14:32:45;7.34;89.92
67364;HTU21D;54250;45.572;38.086;2023-11-18T14:35:12;7.37;89.93
67364;HTU21D;54250;45.572;38.086;2023-11-18T14:37:43;7.38;89.96
67364;HTU21D;54250;45.572;38.086;2023-11-18T14:40:14;7.35;89.96
67364;HTU21D;54250;45.572;38.086;2023-11-18T14:42:45;7.32;89.99
67364;HTU21D;54250;45.572;38.086;2023-11-18T14:45:14;7.31;90.14
67364;HTU21D;54250;45.572;38.086;2023-11-18T14:47:41;7.28;90.21
67364;HTU21D;54250;45.572;38.086;2023-11-18T14:50:10;7.26;90.28
67364;HTU21D;54250;45.572;38.086;2023-11-18T14:52:46;7.25;90.37
67364;HTU21D;54250;45.572;38.086;2023-11-18T14:55:12;7.26;90.34
67364;HTU21D;54250;45.572;38.086;2023-11-18T14:57:40;7.22;90.32
67364;HTU21D;54250;45.572;38.086;2023-11-18T15:00:07;7.20;90.42
67364;HTU21D;54250;45.572;38.086;2023-11-18T15:02:34;7.19;90.48
67364;HTU21D;54250;45.572;38.086;2023-11-18T15:05:02;7.19;90.48
67364;HTU21D;54250;45.572;38.086;2023-11-18T15:07:34;7.18;90.52
67364;HTU21D;54250;45.572;38.086;2023-11-18T15:10:00;7.16;90.69
67364;HTU21D;54250;45.572;38.086;2023-11-18T15:12:26;7.14;90.78
67364;HTU21D;54250;45.572;38.086;2023-11-18T15:14:52;7.16;90.83
67364;HTU21D;54250;45.572;38.086;2023-11-18T15:17:18;7.16;90.78
67364;HTU21D;54250;45.572;38.086;2023-11-18T15:19:44;7.17;90.91
67364;HTU21D;54250;45.572;38.086;2023-11-18T15:22:10;7.18;90.86
67364;HTU21D;54250;45.572;38.086;2023-11-18T15:24:36;7.19;90.86
67364;HTU21D;54250;45.572;38.086;2023-11-18T15:27:02;7.17;90.86
67364;HTU21D;54250;45.572;38.086;2023-11-18T15:29:29;7.15;90.95
67364;HTU21D;54250;45.572;38.086;2023-11-18T15:32:03;7.11;91.13
67364;HTU21D;54250;45.572;38.086;2023-11-18T15:34:29;7.08;91.21
67364;HTU21D;54250;45.572;38.086;2023-11-18T15:36:58;7.04;91.28
67364;HTU21D;54250;45.572;38.086;2023-11-18T15:39:26;7.04;91.29
67364;HTU21D;54250;45.572;38.086;2023-11-18T15:41:53;7.03;91.35
67364;HTU21D;54250;45.572;38.086;2023-11-18T15:44:19;7.03;91.28
67364;HTU21D;54250;45.572;38.086;2023-11-18T15:46:48;7.07;91.24
67364;HTU21D;54250;45.572;38.086;2023-11-18T15:49:15;7.04;91.24
67364;HTU21D;54250;45.572;38.086;2023-11-18T15:51:41;7.04;91.21
67364;HTU21D;54250;45.572;38.086;2023-11-18T15:54:07;7.04;91.18